Cassoday, Kansas
Current Conditions -  °F | °C
As of 7:15 PM on Sunday 23 Nov 2014 (Local Time) from KEQA Reporting Station
Overcast Overcast  
Wind Chill: 35°   Ceiling: 7000
Heat Index: 43°   Visibility: 10mi
Dew Point: 39°   Wind: 16mph
Humidity: 87%   Direction: 330°NNW
Pressure: 29.57"   Gusts: 26mph
Location:  38.04°N, 96.64°W
Report Text: KEQA 240115Z AUTO 33014G23KT 10SM SCT013 SCT046 OVC070 06/04 A2957 RMK AO2
Loading
Personal Weather Stations






























Interactive Weather Map New forecast layout! Learn more

10-Day Weather Forecast

Advertisements
Track Severe Weather on mobile